createdAt,value
2022-11-23T00:02:36.726Z,0.47
2022-11-23T00:05:36.743Z,0.48
2022-11-23T00:08:36.622Z,0.49
2022-11-23T00:11:36.714Z,0.43
2022-11-23T00:14:36.628Z,0.43
2022-11-23T00:17:36.675Z,0.45
2022-11-23T00:20:36.658Z,0.56
2022-11-23T00:23:36.772Z,0.69
2022-11-23T00:26:36.750Z,0.6
2022-11-23T00:29:36.760Z,0.67
2022-11-23T00:32:36.727Z,0.64
2022-11-23T00:35:36.752Z,0.83
2022-11-23T00:38:36.659Z,0.79
2022-11-23T00:41:36.683Z,0.61
2022-11-23T00:44:36.689Z,0.77
2022-11-23T00:47:36.804Z,0.92
2022-11-23T00:50:36.737Z,1
2022-11-23T00:53:36.759Z,0.87
2022-11-23T00:56:36.655Z,0.86
2022-11-23T00:59:36.719Z,0.75
2022-11-23T01:02:36.759Z,0.82
2022-11-23T01:05:36.733Z,0.88
2022-11-23T01:08:36.778Z,0.69
2022-11-23T01:11:36.696Z,0.81
2022-11-23T01:14:36.765Z,0.94
2022-11-23T01:17:36.790Z,0.7
2022-11-23T01:20:36.687Z,0.97
2022-11-23T01:23:36.767Z,0.75
2022-11-23T01:26:36.788Z,0.82
2022-11-23T01:29:36.752Z,0.7
2022-11-23T01:32:36.771Z,0.63
2022-11-23T01:35:36.784Z,0.72
2022-11-23T01:38:36.722Z,0.86
2022-11-23T01:41:36.733Z,0.69
2022-11-23T01:44:36.747Z,0.81
2022-11-23T01:47:36.736Z,0.74
2022-11-23T01:50:36.750Z,0.75
2022-11-23T01:53:36.744Z,0.81
2022-11-23T01:56:36.775Z,0.69
2022-11-23T01:59:36.820Z,0.77
2022-11-23T02:02:36.753Z,0.69
2022-11-23T02:05:36.787Z,0.71
2022-11-23T02:08:36.752Z,0.5
2022-11-23T02:11:36.751Z,0.76
2022-11-23T02:14:36.727Z,0.76
2022-11-23T02:17:36.783Z,0.71
2022-11-23T02:20:36.853Z,0.64
2022-11-23T02:23:36.812Z,1.05
2022-11-23T02:26:36.767Z,0.66
2022-11-23T02:29:36.763Z,0.75
2022-11-23T02:32:36.830Z,0.78
2022-11-23T02:35:36.754Z,0.88
2022-11-23T02:38:36.771Z,0.84
2022-11-23T02:41:36.855Z,0.8
2022-11-23T02:44:36.811Z,0.78
2022-11-23T02:47:36.841Z,0.73
2022-11-23T02:50:36.763Z,0.61
2022-11-23T02:53:36.794Z,0.66
2022-11-23T02:56:36.794Z,0.71
2022-11-23T02:59:36.840Z,0.52
2022-11-23T03:02:36.866Z,0.67
2022-11-23T03:05:36.786Z,0.6
2022-11-23T03:08:36.880Z,0.6
2022-11-23T03:11:36.827Z,0.54
2022-11-23T03:14:36.814Z,0.59
2022-11-23T03:17:36.851Z,0.51
2022-11-23T03:20:36.880Z,0.56
2022-11-23T03:23:36.819Z,0.52
2022-11-23T03:26:36.892Z,0.59
2022-11-23T03:29:36.867Z,0.66
2022-11-23T03:32:36.821Z,0.46
2022-11-23T03:35:36.813Z,0.44
2022-11-23T03:38:36.807Z,0.52
2022-11-23T03:41:36.964Z,0.57
2022-11-23T03:44:36.824Z,0.52
2022-11-23T03:47:36.832Z,0.44
2022-11-23T03:50:36.814Z,0.59
2022-11-23T03:53:36.913Z,0.58
2022-11-23T03:56:36.850Z,0.52
2022-11-23T03:59:36.819Z,0.67
2022-11-23T04:02:36.912Z,0.49
2022-11-23T04:05:36.888Z,0.49
2022-11-23T04:08:36.911Z,0.39
2022-11-23T04:11:36.868Z,0.38
2022-11-23T04:14:36.906Z,0.24
2022-11-23T04:17:36.940Z,0.41
2022-11-23T04:20:36.912Z,0.18
2022-11-23T04:23:36.863Z,0.24
2022-11-23T04:26:36.923Z,0.22
2022-11-23T04:29:36.867Z,0.52
2022-11-23T04:32:36.869Z,0.53
2022-11-23T04:35:36.949Z,0.37
2022-11-23T04:38:36.909Z,0.25
2022-11-23T04:41:36.876Z,0.03
2022-11-23T04:44:36.944Z,0.1
2022-11-23T04:47:36.884Z,0.12
2022-11-23T04:50:38.835Z,0.07
2022-11-23T04:53:36.923Z,0.12
2022-11-23T04:56:36.967Z,0.38
2022-11-23T04:59:36.952Z,0.1
2022-11-23T05:02:36.936Z,0.22
2022-11-23T05:05:37.005Z,0.24
2022-11-23T05:08:36.958Z,0.19
2022-11-23T05:11:36.914Z,0.24
2022-11-23T05:14:36.894Z,0.2
2022-11-23T05:17:36.906Z,0.06
2022-11-23T05:20:36.990Z,0.01
2022-11-23T05:23:36.961Z,0.06
2022-11-23T05:26:36.928Z,0.09
2022-11-23T05:29:36.948Z,0.08
2022-11-23T05:32:36.927Z,0.11
2022-11-23T05:35:36.923Z,0.1
2022-11-23T05:38:36.908Z,0.14
2022-11-23T05:41:36.943Z,0
2022-11-23T05:44:36.955Z,0
2022-11-23T05:47:36.939Z,0.02
2022-11-23T05:50:36.980Z,0.06
2022-11-23T05:53:36.938Z,0
2022-11-23T05:56:40.066Z,0
2022-11-23T05:59:37.025Z,0
2022-11-23T06:02:40.972Z,0
2022-11-23T06:05:36.946Z,0.12
2022-11-23T06:08:36.955Z,0.06
2022-11-23T06:11:37.085Z,0.01
2022-11-23T06:14:37.024Z,0
2022-11-23T06:17:36.965Z,0
2022-11-23T06:20:37.002Z,0.01
2022-11-23T06:23:36.972Z,0.03
2022-11-23T06:26:36.936Z,0.01
2022-11-23T06:29:37.035Z,0
2022-11-23T06:32:37.031Z,0.05
2022-11-23T06:35:36.948Z,0.06
2022-11-23T06:38:36.986Z,0.02
2022-11-23T06:41:37.005Z,0.02
2022-11-23T06:44:37.049Z,0.09
2022-11-23T06:47:37.044Z,0
2022-11-23T06:50:36.988Z,0
2022-11-23T06:53:36.980Z,0.18
2022-11-23T06:56:37.022Z,0.07
2022-11-23T06:59:40.639Z,0.02
2022-11-23T07:02:36.958Z,0.02
2022-11-23T07:05:37.003Z,0.08
2022-11-23T07:08:37.061Z,0.01
2022-11-23T07:11:37.045Z,0
2022-11-23T07:14:37.074Z,0.14
2022-11-23T07:17:37.061Z,0.19
2022-11-23T07:20:37.015Z,0.16
2022-11-23T07:23:37.000Z,0.12
2022-11-23T07:26:37.091Z,0.01
2022-11-23T07:29:37.065Z,0.13
2022-11-23T07:32:37.083Z,0.12
2022-11-23T07:35:37.071Z,0.14
2022-11-23T07:38:37.036Z,0.23
2022-11-23T07:41:37.021Z,0.09
2022-11-23T07:44:37.116Z,0.01
2022-11-23T07:47:37.122Z,0.19
2022-11-23T07:50:37.026Z,0.27
2022-11-23T07:53:37.051Z,0.16
2022-11-23T07:56:37.116Z,0.34
2022-11-23T07:59:37.067Z,0.46
2022-11-23T08:02:37.138Z,0.6
2022-11-23T08:05:37.104Z,0.46
2022-11-23T08:08:37.109Z,0.54
2022-11-23T08:11:37.076Z,0.7
2022-11-23T08:14:37.260Z,0.68
2022-11-23T08:17:37.099Z,0.56
2022-11-23T08:20:37.139Z,0.6
2022-11-23T08:23:37.109Z,0.66
2022-11-23T08:26:37.075Z,0.58
2022-11-23T08:29:37.136Z,0.64
2022-11-23T08:32:37.044Z,0.7
2022-11-23T08:35:37.158Z,0.57
2022-11-23T08:38:37.121Z,0.68
2022-11-23T08:41:37.102Z,0.56
2022-11-23T08:44:37.132Z,0.59
2022-11-23T08:47:37.154Z,0.47
2022-11-23T08:50:37.185Z,0.41
2022-11-23T08:53:37.103Z,0.26
2022-11-23T08:56:37.176Z,0.59
2022-11-23T08:59:37.076Z,0.55
2022-11-23T09:02:37.096Z,0.63
2022-11-23T09:05:37.175Z,0.5
2022-11-23T09:08:37.083Z,0.45
2022-11-23T09:11:37.176Z,0.37
2022-11-23T09:14:37.131Z,0.39
2022-11-23T09:17:37.109Z,0.38
2022-11-23T09:20:37.158Z,0.48
2022-11-23T09:23:37.112Z,0.59
2022-11-23T09:26:37.117Z,0.52
2022-11-23T09:29:37.115Z,0.67
2022-11-23T09:32:37.097Z,0.96
2022-11-23T09:35:40.824Z,0.5
2022-11-23T09:38:56.428Z,0.77
2022-11-23T09:41:37.186Z,0.59
2022-11-23T09:44:37.248Z,0.64
2022-11-23T09:47:37.141Z,0.55
2022-11-23T09:50:37.112Z,0.74
2022-11-23T09:53:37.173Z,0.76
2022-11-23T09:56:37.247Z,0.72
2022-11-23T09:59:37.225Z,0.68
2022-11-23T10:02:37.146Z,0.75
2022-11-23T10:05:37.163Z,0.83
2022-11-23T10:08:37.235Z,0.92
2022-11-23T10:11:37.132Z,0.78
2022-11-23T10:14:37.268Z,0.8
2022-11-23T10:17:37.236Z,0.78
2022-11-23T10:20:37.183Z,0.91
2022-11-23T10:23:37.154Z,0.71
2022-11-23T10:26:37.255Z,0.81
2022-11-23T10:29:37.241Z,0.55
2022-11-23T10:32:37.199Z,0.63
2022-11-23T10:35:37.203Z,0.69
2022-11-23T10:38:37.197Z,0.48
2022-11-23T10:41:37.179Z,0.7
2022-11-23T10:44:37.191Z,0.83
2022-11-23T10:47:37.171Z,0.64
2022-11-23T10:50:37.211Z,0.71
2022-11-23T10:53:37.195Z,0.81
2022-11-23T10:56:37.277Z,0.51
2022-11-23T10:59:37.263Z,0.57
2022-11-23T11:02:37.285Z,0.78
2022-11-23T11:06:07.336Z,0.66
2022-11-23T11:08:37.234Z,0.76
2022-11-23T11:11:37.209Z,0.58
2022-11-23T11:14:42.923Z,0.63
2022-11-23T11:17:37.236Z,0.61
2022-11-23T11:20:37.292Z,1.08
2022-11-23T11:23:37.235Z,0.98
2022-11-23T11:26:37.211Z,0.45
2022-11-23T11:29:39.272Z,0.43
2022-11-23T11:32:37.278Z,0.24
2022-11-23T11:35:37.228Z,0.71
2022-11-23T11:38:37.349Z,0.57
2022-11-23T11:41:37.305Z,0.75
2022-11-23T11:44:37.306Z,0.76
2022-11-23T11:47:37.312Z,0.88
2022-11-23T11:50:37.232Z,0.86
2022-11-23T11:53:37.321Z,0.85
2022-11-23T11:56:37.265Z,0.74
2022-11-23T11:59:37.349Z,0.74
2022-11-23T12:02:37.279Z,0.85
2022-11-23T12:05:37.353Z,0.6
2022-11-23T12:08:37.248Z,0.47
2022-11-23T12:11:37.263Z,0.6
2022-11-23T12:14:37.261Z,0.8
2022-11-23T12:17:37.356Z,0.92
2022-11-23T12:20:37.314Z,0.75
2022-11-23T12:23:37.348Z,0.75
2022-11-23T12:26:37.264Z,0.75
2022-11-23T12:29:37.360Z,0.31
2022-11-23T12:32:37.287Z,0.63
2022-11-23T12:35:37.281Z,1.11
2022-11-23T12:38:37.342Z,1.09
2022-11-23T12:41:37.400Z,0.89
2022-11-23T12:44:37.359Z,1.13
2022-11-23T12:47:37.393Z,0.85
2022-11-23T12:50:37.359Z,1.16
2022-11-23T12:53:37.391Z,0.63
2022-11-23T12:56:37.301Z,0.9
2022-11-23T12:59:37.396Z,1.02
2022-11-23T13:02:37.374Z,0.97
2022-11-23T13:05:37.323Z,1.14
2022-11-23T13:08:37.395Z,0.89
2022-11-23T13:11:37.435Z,0.69
2022-11-23T13:14:37.420Z,0.61
2022-11-23T13:17:37.295Z,0.48
2022-11-23T13:20:37.336Z,0.75
2022-11-23T13:23:37.324Z,0.64
2022-11-23T13:26:37.369Z,0.47
2022-11-23T13:29:37.376Z,0.85
2022-11-23T13:32:37.451Z,1.02
2022-11-23T13:35:37.426Z,0.62
2022-11-23T13:38:37.348Z,0.37
2022-11-23T13:41:37.424Z,1.16
2022-11-23T13:44:37.450Z,0.57
2022-11-23T13:47:40.802Z,0.75
2022-11-23T13:50:37.481Z,0.49
2022-11-23T13:53:37.367Z,0.13
2022-11-23T13:56:37.408Z,0.48
2022-11-23T13:59:37.386Z,0.23
2022-11-23T14:02:37.389Z,0.42
2022-11-23T14:05:37.358Z,0.4
2022-11-23T14:08:37.441Z,0.37
2022-11-23T14:11:37.496Z,0.19
2022-11-23T14:14:37.419Z,0.29
2022-11-23T14:17:37.428Z,0.32
2022-11-23T14:20:37.393Z,0.91
2022-11-23T14:23:37.427Z,0.55
2022-11-23T14:26:37.388Z,0.7
2022-11-23T14:29:37.423Z,0.49
2022-11-23T14:32:37.487Z,0.39
2022-11-23T14:35:37.456Z,0.36
2022-11-23T14:38:37.480Z,0.84
2022-11-23T14:41:37.447Z,0.35
2022-11-23T14:44:38.895Z,0.48
2022-11-23T14:47:37.494Z,0.54
2022-11-23T14:50:37.411Z,0.55
2022-11-23T14:53:37.380Z,0.37
2022-11-23T14:56:37.472Z,0.15
2022-11-23T14:59:37.497Z,0
2022-11-23T15:02:37.543Z,0.01
2022-11-23T15:05:37.436Z,0
2022-11-23T15:08:37.520Z,0.07
2022-11-23T15:11:37.442Z,0
2022-11-23T15:14:37.521Z,0.01
2022-11-23T15:17:37.522Z,0
2022-11-23T15:20:37.527Z,0.3
2022-11-23T15:23:37.573Z,0.17
2022-11-23T15:26:52.681Z,0.15
2022-11-23T15:29:37.827Z,0.14
2022-11-23T15:32:37.525Z,0.03
2022-11-23T15:35:37.428Z,0.23
2022-11-23T15:38:37.466Z,0.28
2022-11-23T15:41:37.572Z,0.48
2022-11-23T15:44:37.512Z,0.36
2022-11-23T15:47:37.500Z,0.3
2022-11-23T15:50:37.489Z,0.33
2022-11-23T15:53:37.502Z,0.35
2022-11-23T15:56:37.467Z,0.31
2022-11-23T15:59:37.536Z,0.3
2022-11-23T16:02:40.370Z,0.38
2022-11-23T16:05:37.555Z,0.31
2022-11-23T16:08:37.478Z,0.59
2022-11-23T16:11:37.454Z,0.47
2022-11-23T16:14:37.954Z,0.46
2022-11-23T16:17:37.534Z,0.63
2022-11-23T16:20:37.559Z,0.47
2022-11-23T16:23:37.592Z,0.29
2022-11-23T16:26:37.517Z,0.32
2022-11-23T16:29:37.572Z,0.28
2022-11-23T16:32:37.751Z,0.46
2022-11-23T16:35:37.485Z,0.5
2022-11-23T16:38:37.571Z,0.3
2022-11-23T16:41:37.500Z,0.16
2022-11-23T16:44:41.306Z,0.22
2022-11-23T16:47:37.516Z,0.33
2022-11-23T16:50:37.516Z,0.51
2022-11-23T16:53:53.686Z,0.85
2022-11-23T16:56:37.583Z,0.73
2022-11-23T16:59:37.584Z,0.86
2022-11-23T17:02:37.624Z,1.21
2022-11-23T17:05:37.576Z,1.08
2022-11-23T17:08:37.567Z,1.03
2022-11-23T17:11:37.596Z,1.09
2022-11-23T17:14:37.544Z,1.34
2022-11-23T17:17:37.560Z,0.96
2022-11-23T17:20:37.546Z,0.67
2022-11-23T17:23:37.599Z,0.77
2022-11-23T17:26:37.520Z,0.94
2022-11-23T17:29:41.568Z,1.17
2022-11-23T17:32:37.531Z,1.25
2022-11-23T17:35:38.389Z,1.54
2022-11-23T17:38:37.642Z,1.14
2022-11-23T17:41:37.585Z,0.93
2022-11-23T17:44:37.553Z,0.6
2022-11-23T17:47:37.574Z,1.55
2022-11-23T17:50:37.531Z,1.14
2022-11-23T17:53:37.572Z,0.8
2022-11-23T17:56:37.563Z,0.55
2022-11-23T17:59:37.564Z,0.62
2022-11-23T18:02:37.566Z,0.84
2022-11-23T18:05:37.645Z,0.9
2022-11-23T18:08:37.659Z,0.73
2022-11-23T18:11:37.551Z,0.91
2022-11-23T18:14:37.651Z,0.69
2022-11-23T18:17:37.596Z,0.37
2022-11-23T18:20:37.643Z,0.43
2022-11-23T18:23:37.574Z,0.69
2022-11-23T18:26:37.647Z,0.37
2022-11-23T18:29:37.683Z,0.39
2022-11-23T18:32:37.626Z,0.32
2022-11-23T18:35:37.652Z,0.86
2022-11-23T18:38:37.723Z,0.69
2022-11-23T18:41:37.614Z,0.63
2022-11-23T18:44:37.686Z,0.22
2022-11-23T18:47:37.593Z,0.81
2022-11-23T18:50:37.683Z,0.4
2022-11-23T18:53:37.602Z,0.61
2022-11-23T18:56:37.618Z,0.46
2022-11-23T19:02:37.674Z,0.79
2022-11-23T19:05:37.632Z,0.6
2022-11-23T19:08:37.712Z,0.89
2022-11-23T19:11:37.709Z,1.16
2022-11-23T19:14:37.633Z,0.76
2022-11-23T19:17:37.684Z,0.87
2022-11-23T19:20:37.717Z,0.95
2022-11-23T19:23:37.707Z,0.98
2022-11-23T19:26:37.640Z,1.02
2022-11-23T19:29:37.832Z,0.81
2022-11-23T19:32:37.661Z,0.61
2022-11-23T19:35:37.661Z,0.76
2022-11-23T19:38:37.685Z,0.66
2022-11-23T19:41:37.738Z,0.51
2022-11-23T19:44:37.728Z,0.42
2022-11-23T19:47:37.653Z,0.62
2022-11-23T19:50:37.736Z,0.73
2022-11-23T19:53:37.701Z,0.61
2022-11-23T19:56:37.726Z,0.2
2022-11-23T19:59:37.737Z,0.47
2022-11-23T20:02:37.725Z,0.15
2022-11-23T20:05:37.685Z,0.51
2022-11-23T20:08:37.655Z,0.25
2022-11-23T20:11:37.725Z,0.73
2022-11-23T20:14:37.660Z,1.11
2022-11-23T20:17:37.701Z,1.35
2022-11-23T20:20:37.708Z,0.81
2022-11-23T20:23:37.656Z,1.06
2022-11-23T20:26:37.840Z,1.26
2022-11-23T20:29:37.679Z,1.39
2022-11-23T20:32:37.714Z,1.08
2022-11-23T20:35:37.667Z,1.29
2022-11-23T20:38:37.707Z,0.99
2022-11-23T20:41:37.751Z,1.37
2022-11-23T20:44:37.837Z,0.62
2022-11-23T20:47:37.774Z,0.75
2022-11-23T20:50:37.798Z,0.98
2022-11-23T20:53:37.795Z,0.65
2022-11-23T20:56:37.787Z,0.55
2022-11-23T20:59:37.701Z,0.92
2022-11-23T21:02:37.795Z,0.69
2022-11-23T21:05:37.756Z,0.52
2022-11-23T21:08:37.718Z,0.41
2022-11-23T21:11:37.738Z,0.64
2022-11-23T21:14:37.863Z,0.94
2022-11-23T21:17:37.821Z,0.88
2022-11-23T21:20:37.724Z,0.93
2022-11-23T21:23:37.806Z,0.71
2022-11-23T21:26:37.834Z,1.19
2022-11-23T21:29:37.838Z,1.27
2022-11-23T21:32:37.799Z,1.01
2022-11-23T21:35:37.779Z,1.23
2022-11-23T21:38:37.707Z,1.03
2022-11-23T21:41:37.751Z,1.12
2022-11-23T21:44:37.819Z,1.34
2022-11-23T21:47:37.761Z,1.44
2022-11-23T21:50:37.821Z,1.64
2022-11-23T21:53:37.800Z,1.08
2022-11-23T21:56:37.828Z,1.58
2022-11-23T21:59:37.851Z,2.23
2022-11-23T22:02:37.826Z,1.7
2022-11-23T22:05:37.766Z,1.67
2022-11-23T22:08:37.864Z,1.96
2022-11-23T22:11:37.792Z,1.52
2022-11-23T22:14:37.806Z,2.04
2022-11-23T22:17:37.776Z,1.47
2022-11-23T22:20:37.783Z,1.77
2022-11-23T22:23:37.849Z,1.39
2022-11-23T22:26:37.804Z,1.38
2022-11-23T22:29:37.794Z,1.52
2022-11-23T22:32:37.782Z,1.67
2022-11-23T22:35:37.826Z,1.22
2022-11-23T22:38:37.797Z,1.74
2022-11-23T22:41:38.144Z,1.76
2022-11-23T22:44:37.823Z,1.95
2022-11-23T22:47:37.803Z,1.39
2022-11-23T22:50:37.828Z,1.83
2022-11-23T22:53:41.491Z,1.39
2022-11-23T22:56:37.846Z,1.39
2022-11-23T22:59:37.856Z,1.78
2022-11-23T23:02:37.952Z,1.46
2022-11-23T23:05:37.831Z,1.14
2022-11-23T23:08:37.833Z,1.54
2022-11-23T23:11:37.877Z,1.52
2022-11-23T23:14:37.840Z,1.32
2022-11-23T23:17:37.866Z,0.76
2022-11-23T23:20:37.808Z,0.87
2022-11-23T23:23:37.841Z,0.9
2022-11-23T23:26:37.883Z,1.41
2022-11-23T23:29:37.838Z,0.94
2022-11-23T23:32:37.849Z,1.41
2022-11-23T23:35:37.830Z,1.11
2022-11-23T23:38:37.881Z,1.27
2022-11-23T23:41:37.841Z,1.15
2022-11-23T23:44:37.853Z,1.21
2022-11-23T23:47:37.890Z,1.08
2022-11-23T23:50:37.848Z,0.97
2022-11-23T23:53:37.867Z,0.96
2022-11-23T23:56:37.851Z,0.98
2022-11-23T23:59:37.863Z,1.44
